Time;durP1;ratioP1;P1;durP2;ratioP2;P2;SDS_P1;SDS_P2;PMS_P1;PMS_P2;Temp;Humidity;BMP_temperature;BMP_pressure;BME280_temperature;BME280_humidity;BME280_pressure;Samples;Min_cycle;Max_cycle;Signal;HPM_P1;HPM_P2
2024/04/05 00:01:18;;;;;;;5.38;2.47;;;;;;;;;;5015796;28;20468;-72
2024/04/05 00:03:44;;;;;;;6.68;2.60;;;;;;;;;;5015940;28;20518;-72
2024/04/05 00:06:10;;;;;;;6.65;1.90;;;;;;;;;;5017889;28;20029;-71
2024/04/05 00:08:36;;;;;;;7.88;3.17;;;;;;;;;;5038199;28;20418;-72
2024/04/05 00:11:02;;;;;;;8.63;2.65;;;;;;;;;;5037370;28;20029;-72
2024/04/05 00:13:28;;;;;;;6.60;2.22;;;;;;;;;;5036818;28;20068;-72
2024/04/05 00:15:54;;;;;;;3.83;1.98;;;;;;;;;;5036929;28;20025;-72
2024/04/05 00:18:21;;;;;;;6.50;2.90;;;;;;;;;;5019520;28;20020;-72
2024/04/05 00:20:47;;;;;;;3.83;2.00;;;;;;;;;;5037088;28;20029;-72
2024/04/05 00:23:13;;;;;;;9.77;2.78;;;;;;;;;;5036642;28;20017;-72
2024/04/05 00:25:40;;;;;;;8.10;3.47;;;;;;;;;;5037281;28;20101;-73
2024/04/05 00:28:06;;;;;;;10.23;2.33;;;;;;;;;;5036917;28;20455;-71
2024/04/05 00:30:32;;;;;;;5.55;2.05;;;;;;;;;;5036807;28;20030;-71
2024/04/05 00:32:58;;;;;;;6.05;2.00;;;;;;;;;;5036145;28;20033;-72
2024/04/05 00:35:24;;;;;;;6.63;2.28;;;;;;;;;;5036143;28;20029;-72
2024/04/05 00:37:50;;;;;;;5.70;2.80;;;;;;;;;;5018891;28;20281;-71
2024/04/05 00:40:16;;;;;;;6.95;2.42;;;;;;;;;;5036719;28;20536;-72
2024/04/05 00:42:42;;;;;;;8.20;3.30;;;;;;;;;;5036007;28;20408;-72
2024/04/05 00:45:08;;;;;;;10.80;2.47;;;;;;;;;;5036150;28;20034;-72
2024/04/05 00:47:35;;;;;;;5.88;2.17;;;;;;;;;;5036332;28;20037;-73
2024/04/05 00:50:02;;;;;;;7.70;1.98;;;;;;;;;;5018573;28;20029;-71
2024/04/05 00:52:28;;;;;;;4.07;1.83;;;;;;;;;;5036430;28;20033;-72
2024/04/05 00:54:55;;;;;;;4.75;1.80;;;;;;;;;;5035823;28;20435;-72
2024/04/05 00:57:22;;;;;;;10.10;3.13;;;;;;;;;;5035989;28;20044;-72
2024/04/05 00:59:48;;;;;;;7.93;2.22;;;;;;;;;;5035853;28;20045;-71
2024/04/05 01:02:14;;;;;;;5.80;2.03;;;;;;;;;;5035166;28;20545;-71
2024/04/05 01:04:40;;;;;;;4.75;2.38;;;;;;;;;;5036083;28;20506;-72
2024/04/05 01:07:06;;;;;;;7.35;2.63;;;;;;;;;;5035613;28;20033;-71
2024/04/05 01:09:32;;;;;;;11.15;3.03;;;;;;;;;;5035717;28;20034;-72
2024/04/05 01:11:58;;;;;;;9.77;2.25;;;;;;;;;;5035121;28;20028;-71
2024/04/05 01:14:24;;;;;;;6.47;2.50;;;;;;;;;;5035682;28;20013;-72
2024/04/05 01:16:51;;;;;;;8.75;2.13;;;;;;;;;;5035366;28;20017;-71
2024/04/05 01:19:17;;;;;;;14.68;3.03;;;;;;;;;;5035576;28;20055;-72
2024/04/05 01:21:51;;;;;;;6.40;2.22;;;;;;;;;;5035531;28;20029;-71
2024/04/05 01:24:17;;;;;;;6.50;2.20;;;;;;;;;;5035612;28;20030;-72
2024/04/05 01:26:43;;;;;;;6.63;2.20;;;;;;;;;;5035357;28;20029;-71
2024/04/05 01:29:09;;;;;;;10.00;3.63;;;;;;;;;;5036629;28;20033;-71
2024/04/05 01:31:35;;;;;;;8.23;2.35;;;;;;;;;;5035167;28;20033;-73
2024/04/05 01:34:01;;;;;;;10.38;2.63;;;;;;;;;;5035587;28;20029;-72
2024/04/05 01:36:27;;;;;;;6.53;1.75;;;;;;;;;;5035827;28;20064;-72
2024/04/05 01:38:53;;;;;;;4.53;1.70;;;;;;;;;;5037802;28;20052;-72
2024/04/05 01:41:20;;;;;;;8.25;2.80;;;;;;;;;;5034836;28;20045;-71
2024/04/05 01:43:46;;;;;;;6.88;2.22;;;;;;;;;;5017605;28;20029;-72
2024/04/05 01:46:12;;;;;;;7.85;2.30;;;;;;;;;;5034809;28;20040;-71
2024/04/05 01:48:38;;;;;;;5.57;2.35;;;;;;;;;;5035132;28;20103;-72
2024/04/05 01:51:04;;;;;;;4.57;2.05;;;;;;;;;;5034081;28;20472;-71
2024/04/05 01:53:30;;;;;;;6.03;1.67;;;;;;;;;;5033174;28;20096;-72
2024/04/05 01:56:05;;;;;;;5.65;1.80;;;;;;;;;;5015503;28;20075;-72
2024/04/05 01:58:31;;;;;;;8.07;2.17;;;;;;;;;;5036173;28;20021;-71
2024/04/05 02:01:01;;;;;;;11.43;3.03;;;;;;;;;;5034755;28;20029;-72
2024/04/05 02:03:27;;;;;;;5.72;2.58;;;;;;;;;;5034996;28;20037;-72
2024/04/05 02:05:53;;;;;;;7.20;2.47;;;;;;;;;;5017005;28;20388;-72
2024/04/05 02:08:19;;;;;;;10.10;2.17;;;;;;;;;;5034408;28;20028;-73
2024/04/05 02:10:46;;;;;;;7.38;2.50;;;;;;;;;;5033701;28;20021;-72
2024/04/05 02:13:12;;;;;;;9.55;2.55;;;;;;;;;;5033809;28;20068;-72
2024/04/05 02:15:38;;;;;;;6.18;2.50;;;;;;;;;;5017022;28;20033;-71
2024/04/05 02:18:08;;;;;;;11.38;2.75;;;;;;;;;;5016450;28;20129;-71
2024/04/05 02:20:34;;;;;;;8.50;3.33;;;;;;;;;;5032548;28;20029;-72
2024/04/05 02:23:00;;;;;;;5.15;2.50;;;;;;;;;;5032169;28;20161;-71
2024/04/05 02:25:26;;;;;;;10.10;2.33;;;;;;;;;;5032447;28;20018;-72
2024/04/05 02:27:52;;;;;;;8.57;2.50;;;;;;;;;;5033759;28;20029;-72
2024/04/05 02:30:18;;;;;;;8.18;2.50;;;;;;;;;;5033033;28;20029;-71
2024/04/05 02:32:44;;;;;;;8.77;2.28;;;;;;;;;;5033610;28;20037;-72
2024/04/05 02:35:10;;;;;;;8.27;2.78;;;;;;;;;;5018913;28;20026;-72
2024/04/05 02:37:36;;;;;;;7.65;2.80;;;;;;;;;;5039948;28;20029;-73
2024/04/05 02:40:04;;;;;;;10.70;3.15;;;;;;;;;;5034393;28;20499;-73
2024/04/05 02:42:30;;;;;;;8.10;2.50;;;;;;;;;;5016098;28;20041;-71
2024/04/05 02:44:56;;;;;;;10.02;2.30;;;;;;;;;;5033805;28;20053;-71
2024/04/05 02:47:22;;;;;;;7.10;2.53;;;;;;;;;;5034776;28;20060;-71
2024/04/05 02:49:48;;;;;;;9.05;3.35;;;;;;;;;;5034755;28;20099;-71
2024/04/05 02:52:14;;;;;;;7.07;2.28;;;;;;;;;;5034285;28;20044;-72
2024/04/05 02:54:40;;;;;;;12.32;3.38;;;;;;;;;;5034409;28;20038;-73
2024/04/05 02:57:06;;;;;;;9.35;2.67;;;;;;;;;;5037307;28;20021;-72
2024/04/05 02:59:32;;;;;;;7.28;2.42;;;;;;;;;;5041519;28;20395;-72
2024/04/05 03:01:58;;;;;;;9.65;2.95;;;;;;;;;;5017628;28;20029;-72
2024/04/05 03:04:24;;;;;;;11.48;3.25;;;;;;;;;;5037118;28;20033;-72
2024/04/05 03:06:50;;;;;;;6.65;2.28;;;;;;;;;;5034991;28;20032;-72
2024/04/05 03:09:16;;;;;;;6.60;3.05;;;;;;;;;;5035768;28;20030;-72
2024/04/05 03:11:42;;;;;;;8.45;2.40;;;;;;;;;;5034484;28;20094;-72
2024/04/05 03:14:08;;;;;;;11.93;2.88;;;;;;;;;;5036341;28;20029;-72
2024/04/05 03:16:34;;;;;;;9.43;3.15;;;;;;;;;;5016416;28;20021;-73
2024/04/05 03:19:00;;;;;;;6.97;2.55;;;;;;;;;;5017878;28;20029;-72
2024/04/05 03:21:26;;;;;;;10.02;3.50;;;;;;;;;;5035253;28;20025;-71
2024/04/05 03:23:52;;;;;;;6.00;2.55;;;;;;;;;;5036159;28;20036;-72
2024/04/05 03:26:18;;;;;;;6.28;2.97;;;;;;;;;;5038068;28;20111;-73
2024/04/05 03:28:46;;;;;;;9.07;2.60;;;;;;;;;;5038844;28;20040;-72
2024/04/05 03:31:12;;;;;;;9.63;3.28;;;;;;;;;;5036056;28;20025;-72
2024/04/05 03:33:38;;;;;;;7.30;1.98;;;;;;;;;;5036732;28;20032;-72
2024/04/05 03:36:04;;;;;;;15.40;2.65;;;;;;;;;;5041137;28;20063;-71
2024/04/05 03:38:31;;;;;;;8.20;3.25;;;;;;;;;;5044041;28;20041;-72
2024/04/05 03:40:57;;;;;;;8.15;2.20;;;;;;;;;;5042232;28;20036;-73
2024/04/05 03:43:23;;;;;;;16.23;5.10;;;;;;;;;;5045732;28;20022;-71
2024/04/05 03:45:49;;;;;;;10.50;2.65;;;;;;;;;;5043072;28;20041;-72
2024/04/05 03:48:15;;;;;;;6.72;2.95;;;;;;;;;;5045637;28;20036;-71
2024/04/05 03:50:41;;;;;;;8.00;2.63;;;;;;;;;;5031379;28;20029;-72
2024/04/05 03:53:07;;;;;;;8.77;2.72;;;;;;;;;;5043089;28;20022;-71
2024/04/05 03:55:33;;;;;;;10.98;2.10;;;;;;;;;;5023903;28;20022;-72
2024/04/05 03:57:59;;;;;;;8.50;1.90;;;;;;;;;;5039876;28;20099;-72
2024/04/05 04:00:25;;;;;;;4.60;1.75;;;;;;;;;;5041260;28;20025;-72
2024/04/05 04:02:52;;;;;;;9.82;2.40;;;;;;;;;;5043020;28;20029;-74
2024/04/05 04:05:18;;;;;;;5.18;2.47;;;;;;;;;;5042425;28;20084;-71
2024/04/05 04:07:44;;;;;;;5.55;1.88;;;;;;;;;;5041839;28;20038;-72
2024/04/05 04:10:11;;;;;;;3.30;1.70;;;;;;;;;;5039919;28;20029;-73
2024/04/05 04:12:38;;;;;;;9.18;2.55;;;;;;;;;;5038439;28;20056;-72
2024/04/05 04:15:05;;;;;;;10.65;2.42;;;;;;;;;;5050346;28;20021;-71
2024/04/05 04:17:31;;;;;;;7.88;2.88;;;;;;;;;;5069290;28;20324;-72
2024/04/05 04:19:59;;;;;;;11.45;2.75;;;;;;;;;;5076370;28;20131;-72
2024/04/05 04:22:25;;;;;;;8.15;2.35;;;;;;;;;;5076371;28;20475;-72
2024/04/05 04:24:51;;;;;;;6.47;2.72;;;;;;;;;;5076339;28;20064;-73
2024/04/05 04:27:17;;;;;;;12.80;3.35;;;;;;;;;;5076345;28;20040;-73
2024/04/05 04:29:43;;;;;;;9.43;2.80;;;;;;;;;;5057776;28;20191;-73
2024/04/05 04:32:09;;;;;;;7.18;2.63;;;;;;;;;;5075521;28;20024;-73
2024/04/05 04:34:35;;;;;;;8.65;2.67;;;;;;;;;;5076148;28;20054;-72
2024/04/05 04:37:01;;;;;;;9.15;3.08;;;;;;;;;;5057101;28;20028;-74
2024/04/05 04:39:28;;;;;;;9.98;3.20;;;;;;;;;;5075305;28;20036;-74
2024/04/05 04:41:54;;;;;;;8.98;2.38;;;;;;;;;;5056725;28;20057;-73
2024/04/05 04:44:21;;;;;;;25.02;3.10;;;;;;;;;;5074800;28;20020;-73
2024/04/05 04:46:47;;;;;;;6.43;2.67;;;;;;;;;;5074788;28;20479;-75
2024/04/05 04:49:13;;;;;;;9.45;2.47;;;;;;;;;;5074925;28;20032;-74
2024/04/05 04:51:40;;;;;;;7.22;2.20;;;;;;;;;;5056092;28;20428;-74
2024/04/05 04:54:06;;;;;;;5.65;2.45;;;;;;;;;;5074569;28;20044;-73
2024/04/05 04:56:32;;;;;;;6.28;2.80;;;;;;;;;;5074767;28;20090;-73
2024/04/05 04:58:59;;;;;;;5.55;2.17;;;;;;;;;;5056941;28;20486;-74
2024/04/05 05:01:25;;;;;;;11.30;2.22;;;;;;;;;;5074970;28;20033;-73
2024/04/05 05:03:52;;;;;;;9.07;2.80;;;;;;;;;;5056498;28;20033;-74
2024/04/05 05:06:18;;;;;;;6.15;2.20;;;;;;;;;;5074786;28;20043;-74
2024/04/05 05:08:44;;;;;;;6.10;2.40;;;;;;;;;;5074300;28;20490;-74
2024/04/05 05:11:10;;;;;;;10.25;2.55;;;;;;;;;;5074213;28;20109;-74
2024/04/05 05:13:36;;;;;;;11.77;2.80;;;;;;;;;;5056521;28;20474;-74
2024/04/05 05:16:03;;;;;;;17.65;3.33;;;;;;;;;;5074756;28;20027;-74
2024/04/05 05:18:29;;;;;;;7.03;3.00;;;;;;;;;;5057560;28;20032;-74
2024/04/05 05:20:55;;;;;;;11.93;2.58;;;;;;;;;;5076377;28;20036;-75
2024/04/05 05:23:21;;;;;;;12.50;3.05;;;;;;;;;;5057683;28;20487;-74
2024/04/05 05:25:47;;;;;;;7.78;1.98;;;;;;;;;;5074692;28;20031;-74
2024/04/05 05:28:14;;;;;;;7.72;2.78;;;;;;;;;;5074425;28;20410;-74
2024/04/05 05:30:40;;;;;;;10.05;2.50;;;;;;;;;;5056203;28;20031;-74
2024/04/05 05:33:07;;;;;;;7.63;3.15;;;;;;;;;;5073369;28;20020;-74
2024/04/05 05:35:33;;;;;;;11.57;2.80;;;;;;;;;;5074583;28;20429;-73
2024/04/05 05:38:00;;;;;;;8.20;2.63;;;;;;;;;;5074705;28;20414;-72
2024/04/05 05:40:26;;;;;;;6.68;2.15;;;;;;;;;;5056661;28;20024;-73
2024/04/05 05:42:53;;;;;;;9.68;2.53;;;;;;;;;;5073408;28;20100;-72
2024/04/05 05:45:21;;;;;;;12.93;3.90;;;;;;;;;;5056033;28;20040;-73
2024/04/05 05:47:52;;;;;;;11.65;3.28;;;;;;;;;;5074444;28;20028;-72
2024/04/05 05:50:18;;;;;;;10.98;3.33;;;;;;;;;;5074164;28;20467;-73
2024/04/05 05:52:44;;;;;;;6.38;2.25;;;;;;;;;;5055215;28;20102;-72
2024/04/05 05:55:10;;;;;;;8.80;2.63;;;;;;;;;;5055929;28;20043;-73
2024/04/05 05:57:36;;;;;;;11.10;3.40;;;;;;;;;;5073926;28;20028;-73
2024/04/05 06:00:05;;;;;;;7.18;2.83;;;;;;;;;;5056156;28;20039;-74
2024/04/05 06:02:31;;;;;;;8.35;3.10;;;;;;;;;;5073696;28;20021;-73
2024/04/05 06:04:57;;;;;;;11.10;3.28;;;;;;;;;;5073916;28;20031;-73
2024/04/05 06:07:23;;;;;;;8.55;2.60;;;;;;;;;;5073348;28;20554;-74
2024/04/05 06:09:50;;;;;;;5.45;2.63;;;;;;;;;;5072726;28;20138;-73
2024/04/05 06:12:16;;;;;;;7.50;3.45;;;;;;;;;;5072578;28;20024;-73
2024/04/05 06:14:42;;;;;;;11.48;3.42;;;;;;;;;;5073561;28;20447;-73
2024/04/05 06:17:11;;;;;;;10.60;3.03;;;;;;;;;;5073333;28;20016;-73
2024/04/05 06:19:38;;;;;;;9.50;3.50;;;;;;;;;;5073157;28;20021;-74
2024/04/05 06:22:04;;;;;;;8.73;2.92;;;;;;;;;;5054424;28;20020;-73
2024/04/05 06:24:30;;;;;;;6.47;2.75;;;;;;;;;;5072851;28;20089;-73
2024/04/05 06:26:56;;;;;;;13.32;2.90;;;;;;;;;;5073028;28;20116;-73
2024/04/05 06:29:22;;;;;;;10.63;4.00;;;;;;;;;;5072880;28;20021;-73
2024/04/05 06:31:48;;;;;;;10.27;3.55;;;;;;;;;;5071700;28;20025;-73
2024/04/05 06:34:15;;;;;;;14.27;3.53;;;;;;;;;;5072359;28;20382;-73
2024/04/05 06:36:41;;;;;;;10.20;3.83;;;;;;;;;;5054463;28;20044;-73
2024/04/05 06:39:07;;;;;;;19.13;5.10;;;;;;;;;;5072496;28;20032;-75
2024/04/05 06:41:33;;;;;;;9.90;3.63;;;;;;;;;;5072386;28;20166;-73
2024/04/05 06:43:59;;;;;;;12.07;3.97;;;;;;;;;;5073005;28;20024;-74
2024/04/05 06:46:26;;;;;;;16.42;4.30;;;;;;;;;;5072497;28;20036;-72
2024/04/05 06:48:52;;;;;;;11.07;3.33;;;;;;;;;;5054425;28;20035;-72
2024/04/05 06:51:20;;;;;;;12.10;3.65;;;;;;;;;;5054096;28;20068;-73
2024/04/05 06:53:48;;;;;;;13.90;4.47;;;;;;;;;;5072213;28;20044;-74
2024/04/05 06:56:14;;;;;;;15.32;3.30;;;;;;;;;;5053837;28;20111;-75
2024/04/05 06:58:40;;;;;;;10.30;3.92;;;;;;;;;;5054173;28;20020;-73
2024/04/05 07:01:06;;;;;;;7.22;3.45;;;;;;;;;;5071627;28;20036;-73
2024/04/05 07:03:32;;;;;;;8.38;3.50;;;;;;;;;;5071803;28;20414;-73
2024/04/05 07:06:03;;;;;;;18.48;3.35;;;;;;;;;;5071981;28;20033;-73
2024/04/05 07:08:30;;;;;;;8.68;3.47;;;;;;;;;;5073928;28;20024;-74
2024/04/05 07:10:57;;;;;;;9.60;2.90;;;;;;;;;;5074260;28;20024;-74
2024/04/05 07:13:25;;;;;;;10.48;3.72;;;;;;;;;;5072871;28;20024;-73
2024/04/05 07:15:52;;;;;;;13.70;3.03;;;;;;;;;;5054426;28;20078;-74
2024/04/05 07:18:21;;;;;;;10.63;3.15;;;;;;;;;;5073051;28;20016;-74
2024/04/05 07:20:47;;;;;;;5.30;2.42;;;;;;;;;;5072686;28;20029;-75
2024/04/05 07:23:13;;;;;;;16.85;3.20;;;;;;;;;;5075102;28;20025;-73
2024/04/05 07:25:39;;;;;;;8.35;2.92;;;;;;;;;;5076190;28;20036;-74
2024/04/05 07:28:06;;;;;;;8.27;3.17;;;;;;;;;;5075954;28;20471;-73
2024/04/05 07:30:33;;;;;;;16.02;2.85;;;;;;;;;;5057160;28;20123;-74
2024/04/05 07:33:00;;;;;;;10.57;2.78;;;;;;;;;;5078921;28;20044;-75
2024/04/05 07:35:27;;;;;;;7.70;3.25;;;;;;;;;;5078426;28;20027;-75
2024/04/05 07:37:53;;;;;;;6.30;2.55;;;;;;;;;;5078578;28;20451;-75
2024/04/05 07:40:23;;;;;;;12.57;4.72;;;;;;;;;;5060933;28;20021;-75
2024/04/05 07:42:50;;;;;;;14.60;3.85;;;;;;;;;;5078399;28;20043;-75
2024/04/05 07:45:16;;;;;;;18.80;4.55;;;;;;;;;;5078596;28;20063;-75
2024/04/05 07:47:42;;;;;;;10.07;3.67;;;;;;;;;;5078073;28;20029;-74
2024/04/05 07:50:08;;;;;;;8.88;4.10;;;;;;;;;;5080541;28;20135;-75
2024/04/05 07:52:34;;;;;;;9.70;4.28;;;;;;;;;;5080511;28;20020;-75
2024/04/05 07:55:02;;;;;;;8.52;3.65;;;;;;;;;;5079013;28;20090;-74
2024/04/05 07:57:28;;;;;;;8.13;3.88;;;;;;;;;;5074767;28;20102;-75
2024/04/05 07:59:54;;;;;;;7.70;3.47;;;;;;;;;;5076664;28;20108;-76
2024/04/05 08:02:27;;;;;;;12.02;4.45;;;;;;;;;;5061699;28;20017;-76
2024/04/05 08:04:55;;;;;;;9.88;4.00;;;;;;;;;;5075011;28;20048;-75
2024/04/05 08:07:21;;;;;;;11.38;3.90;;;;;;;;;;5056755;28;20021;-74
2024/04/05 08:09:47;;;;;;;13.27;5.07;;;;;;;;;;5078804;28;20169;-75
2024/04/05 08:12:13;;;;;;;14.52;5.15;;;;;;;;;;5058808;28;20051;-75
2024/04/05 08:14:39;;;;;;;12.48;3.70;;;;;;;;;;5057170;28;20055;-75
2024/04/05 08:17:05;;;;;;;11.80;4.10;;;;;;;;;;5055400;28;20024;-75
2024/04/05 08:19:32;;;;;;;15.30;4.60;;;;;;;;;;5073972;28;20021;-75
2024/04/05 08:21:58;;;;;;;12.70;3.70;;;;;;;;;;5074051;28;20025;-75
2024/04/05 08:24:24;;;;;;;8.00;3.75;;;;;;;;;;5073476;28;20371;-77
2024/04/05 08:26:50;;;;;;;17.35;4.03;;;;;;;;;;5074803;28;20020;-75
2024/04/05 08:29:16;;;;;;;16.95;4.95;;;;;;;;;;5059210;28;20021;-76
2024/04/05 08:31:42;;;;;;;15.88;4.43;;;;;;;;;;5057810;28;20032;-76
2024/04/05 08:34:08;;;;;;;9.77;3.85;;;;;;;;;;5076031;28;20051;-75
2024/04/05 08:36:34;;;;;;;14.13;4.25;;;;;;;;;;5075414;28;20020;-74
2024/04/05 08:39:00;;;;;;;7.97;3.88;;;;;;;;;;5057543;28;20020;-76
2024/04/05 08:41:29;;;;;;;6.18;3.35;;;;;;;;;;5056992;28;20020;-75
2024/04/05 08:43:58;;;;;;;10.70;3.75;;;;;;;;;;5075573;28;20024;-76
2024/04/05 08:46:25;;;;;;;14.63;3.50;;;;;;;;;;5057188;28;20047;-75
2024/04/05 08:48:52;;;;;;;7.20;3.28;;;;;;;;;;5075489;28;20031;-75
2024/04/05 08:51:18;;;;;;;6.28;2.13;;;;;;;;;;5057596;28;20044;-75
2024/04/05 08:53:44;;;;;;;5.57;2.20;;;;;;;;;;5076501;28;20078;-75
2024/04/05 08:56:11;;;;;;;8.00;2.38;;;;;;;;;;5059630;28;20027;-74
2024/04/05 08:58:37;;;;;;;7.10;2.35;;;;;;;;;;5076492;28;20032;-75
2024/04/05 09:01:04;;;;;;;12.15;3.13;;;;;;;;;;5058381;28;20028;-75
2024/04/05 09:03:30;;;;;;;7.82;2.08;;;;;;;;;;5076662;28;20055;-75
2024/04/05 09:05:56;;;;;;;8.77;2.15;;;;;;;;;;5060520;28;20399;-76
2024/04/05 09:08:22;;;;;;;5.53;1.83;;;;;;;;;;5062594;28;20383;-76
2024/04/05 09:10:52;;;;;;;10.65;2.25;;;;;;;;;;5080775;28;20048;-75
2024/04/05 09:13:18;;;;;;;6.15;1.90;;;;;;;;;;5062315;28;20111;-76
2024/04/05 09:15:50;;;;;;;3.63;1.50;;;;;;;;;;5060915;28;20052;-76
2024/04/05 09:18:26;;;;;;;6.47;1.40;;;;;;;;;;5077357;28;20021;-75
2024/04/05 09:20:52;;;;;;;7.85;1.70;;;;;;;;;;5077538;28;20017;-75
2024/04/05 09:23:18;;;;;;;7.60;1.40;;;;;;;;;;5076720;28;20054;-75
2024/04/05 09:25:44;;;;;;;6.97;2.08;;;;;;;;;;5078257;28;20032;-75
2024/04/05 09:28:13;;;;;;;7.03;1.65;;;;;;;;;;5077646;28;20069;-75
2024/04/05 09:30:39;;;;;;;5.07;1.75;;;;;;;;;;5076544;28;20036;-75
2024/04/05 09:33:05;;;;;;;2.63;0.90;;;;;;;;;;5078227;28;20062;-74
2024/04/05 09:35:31;;;;;;;6.07;1.38;;;;;;;;;;5077273;28;20039;-74
2024/04/05 09:37:58;;;;;;;5.00;1.30;;;;;;;;;;5076285;28;20025;-76
2024/04/05 09:40:24;;;;;;;5.00;1.25;;;;;;;;;;5056536;28;20063;-75
2024/04/05 09:42:52;;;;;;;5.45;1.58;;;;;;;;;;5074723;28;20100;-75
2024/04/05 09:45:20;;;;;;;4.53;1.15;;;;;;;;;;5074999;28;20025;-76
2024/04/05 09:47:46;;;;;;;6.60;1.80;;;;;;;;;;5078128;28;20031;-75
2024/04/05 09:50:14;;;;;;;7.18;1.98;;;;;;;;;;5079479;28;20075;-77
2024/04/05 09:52:44;;;;;;;7.60;2.35;;;;;;;;;;5077410;28;20020;-75
2024/04/05 09:55:13;;;;;;;6.67;1.83;;;;;;;;;;5075890;28;20451;-76
2024/04/05 09:57:39;;;;;;;6.65;1.50;;;;;;;;;;5058749;28;20367;-77
2024/04/05 10:00:14;;;;;;;2.78;1.20;;;;;;;;;;5076678;28;20037;-75
2024/04/05 10:02:41;;;;;;;7.45;1.48;;;;;;;;;;5060584;28;20028;-76
2024/04/05 10:05:08;;;;;;;6.38;0.95;;;;;;;;;;5076239;28;20024;-76
2024/04/05 10:07:34;;;;;;;2.72;1.00;;;;;;;;;;5077648;28;20021;-75
2024/04/05 10:10:10;;;;;;;4.15;1.13;;;;;;;;;;5074554;28;20115;-77
2024/04/05 10:12:36;;;;;;;4.47;0.80;;;;;;;;;;5074336;28;20421;-76
2024/04/05 10:15:03;;;;;;;8.43;2.00;;;;;;;;;;5056465;28;20024;-74
2024/04/05 10:17:29;;;;;;;3.55;1.30;;;;;;;;;;5056743;28;20502;-75
2024/04/05 10:20:06;;;;;;;5.05;0.93;;;;;;;;;;5055963;28;20541;-73
2024/04/05 10:22:32;;;;;;;1.92;1.05;;;;;;;;;;5055020;28;20028;-74
2024/04/05 10:24:58;;;;;;;5.00;1.08;;;;;;;;;;5072940;28;20078;-74
2024/04/05 10:27:25;;;;;;;4.32;0.98;;;;;;;;;;5055320;28;20088;-74
2024/04/05 10:30:01;;;;;;;6.68;1.23;;;;;;;;;;5072643;28;20031;-76
2024/04/05 10:32:28;;;;;;;8.48;0.93;;;;;;;;;;5054508;28;20071;-74
2024/04/05 10:35:05;;;;;;;4.50;0.70;;;;;;;;;;5055494;28;20017;-76
2024/04/05 10:37:32;;;;;;;11.18;1.50;;;;;;;;;;5055544;28;20025;-76
2024/04/05 10:40:10;;;;;;;2.30;0.70;;;;;;;;;;5073925;28;20025;-76
2024/04/05 10:42:37;;;;;;;4.00;0.77;;;;;;;;;;5057138;28;20097;-76
2024/04/05 10:45:05;;;;;;;5.57;1.05;;;;;;;;;;5057378;28;20024;-75
2024/04/05 10:47:33;;;;;;;5.85;0.77;;;;;;;;;;5057844;28;20024;-75
2024/04/05 10:50:00;;;;;;;2.25;0.60;;;;;;;;;;5075579;28;20044;-76
2024/04/05 10:52:26;;;;;;;6.13;1.85;;;;;;;;;;5058208;28;20020;-75
2024/04/05 10:54:52;;;;;;;5.93;1.52;;;;;;;;;;5055513;28;20048;-75
2024/04/05 10:57:19;;;;;;;6.57;1.15;;;;;;;;;;5056034;28;20016;-75
2024/04/05 10:59:45;;;;;;;3.55;1.27;;;;;;;;;;5055321;28;20027;-74
2024/04/05 11:02:12;;;;;;;5.43;0.82;;;;;;;;;;5074426;28;20092;-75
2024/04/05 11:04:39;;;;;;;6.68;0.90;;;;;;;;;;5073508;28;20024;-75
2024/04/05 11:07:05;;;;;;;2.45;1.00;;;;;;;;;;5055686;28;20050;-75
2024/04/05 11:09:38;;;;;;;3.63;1.23;;;;;;;;;;5056211;28;20028;-75
2024/04/05 11:12:04;;;;;;;6.15;1.02;;;;;;;;;;5056460;28;20024;-74
2024/04/05 11:14:31;;;;;;;4.55;0.93;;;;;;;;;;5055810;28;20036;-75
2024/04/05 11:17:00;;;;;;;2.42;0.90;;;;;;;;;;5054452;28;20024;-76
2024/04/05 11:19:27;;;;;;;5.63;1.58;;;;;;;;;;5072665;28;20017;-75
2024/04/05 11:22:03;;;;;;;5.18;0.85;;;;;;;;;;5054498;28;20035;-75
2024/04/05 11:24:29;;;;;;;7.28;1.05;;;;;;;;;;5054629;28;20048;-75
2024/04/05 11:26:56;;;;;;;3.30;0.77;;;;;;;;;;5072860;28;20032;-74
2024/04/05 11:29:22;;;;;;;2.95;1.17;;;;;;;;;;5072964;28;20025;-75
2024/04/05 11:31:48;;;;;;;5.28;1.30;;;;;;;;;;5054717;28;20020;-75
2024/04/05 11:34:14;;;;;;;2.35;0.68;;;;;;;;;;5054948;28;20020;-75
2024/04/05 11:36:40;;;;;;;6.85;1.55;;;;;;;;;;5072897;28;20532;-74
2024/04/05 11:39:07;;;;;;;5.20;1.15;;;;;;;;;;5069951;28;20028;-76
2024/04/05 11:41:33;;;;;;;5.80;0.90;;;;;;;;;;5014884;28;20064;-75
2024/04/05 11:44:00;;;;;;;5.57;1.38;;;;;;;;;;5033440;28;20026;-75
2024/04/05 11:46:27;;;;;;;2.97;1.10;;;;;;;;;;5016781;28;20388;-75
2024/04/05 11:48:53;;;;;;;6.50;0.90;;;;;;;;;;5034319;28;20022;-74
2024/04/05 11:51:20;;;;;;;2.42;1.00;;;;;;;;;;5033031;28;20025;-74
2024/04/05 11:53:47;;;;;;;3.67;0.88;;;;;;;;;;5032701;28;20083;-74
2024/04/05 11:56:13;;;;;;;2.08;0.82;;;;;;;;;;5035737;28;20091;-75
2024/04/05 11:58:39;;;;;;;5.32;0.98;;;;;;;;;;5037711;28;20033;-75
2024/04/05 12:01:05;;;;;;;4.85;1.30;;;;;;;;;;5036980;28;20026;-75
2024/04/05 12:03:31;;;;;;;2.65;0.85;;;;;;;;;;5022751;28;20048;-75
2024/04/05 12:05:57;;;;;;;3.90;1.05;;;;;;;;;;5038150;28;20028;-76
2024/04/05 12:08:24;;;;;;;2.33;0.75;;;;;;;;;;5037709;28;20599;-74
2024/04/05 12:10:50;;;;;;;5.18;1.05;;;;;;;;;;5037459;28;20032;-76
2024/04/05 12:13:16;;;;;;;1.75;0.88;;;;;;;;;;5037477;28;20079;-74
2024/04/05 12:15:43;;;;;;;2.30;0.73;;;;;;;;;;5037266;28;20056;-75
2024/04/05 12:18:10;;;;;;;3.05;0.95;;;;;;;;;;5036106;28;20099;-75
2024/04/05 12:20:36;;;;;;;9.18;0.80;;;;;;;;;;5019461;28;20087;-74
2024/04/05 12:23:03;;;;;;;5.72;0.80;;;;;;;;;;5018448;28;20434;-74
2024/04/05 12:25:29;;;;;;;3.40;0.90;;;;;;;;;;5018718;28;20064;-75
2024/04/05 12:27:55;;;;;;;6.05;1.23;;;;;;;;;;5019249;28;20032;-76
2024/04/05 12:30:21;;;;;;;6.60;0.95;;;;;;;;;;5017953;28;20033;-74
2024/04/05 12:32:47;;;;;;;6.70;1.88;;;;;;;;;;5036255;28;20021;-73
2024/04/05 12:35:13;;;;;;;4.65;0.98;;;;;;;;;;5036400;28;20132;-74
2024/04/05 12:37:39;;;;;;;2.28;0.88;;;;;;;;;;5036889;28;20026;-74
2024/04/05 12:40:15;;;;;;;9.25;1.67;;;;;;;;;;5035771;28;20032;-74
2024/04/05 12:42:41;;;;;;;5.80;1.35;;;;;;;;;;5036403;28;20022;-76
2024/04/05 12:45:12;;;;;;;1.10;0.68;;;;;;;;;;5018091;28;20045;-75
2024/04/05 12:47:38;;;;;;;5.55;1.00;;;;;;;;;;5035934;28;20037;-74
2024/04/05 12:50:04;;;;;;;2.35;1.00;;;;;;;;;;5035201;28;20049;-74
2024/04/05 12:52:31;;;;;;;5.80;0.77;;;;;;;;;;5035644;28;20452;-74
2024/04/05 12:54:57;;;;;;;10.05;1.60;;;;;;;;;;5020062;28;20055;-74
2024/04/05 12:57:23;;;;;;;7.00;1.08;;;;;;;;;;5021451;28;20021;-73
2024/04/05 12:59:50;;;;;;;2.28;0.90;;;;;;;;;;5037822;28;20026;-73
2024/04/05 13:02:16;;;;;;;6.05;1.40;;;;;;;;;;5035259;28;20030;-74
2024/04/05 13:04:42;;;;;;;1.67;0.73;;;;;;;;;;5035250;28;20025;-75
2024/04/05 13:07:08;;;;;;;1.83;0.77;;;;;;;;;;5035587;28;20078;-74
2024/04/05 13:09:34;;;;;;;3.60;1.13;;;;;;;;;;5035596;28;20030;-75
2024/04/05 13:12:03;;;;;;;4.00;0.70;;;;;;;;;;5034630;28;20025;-75
2024/04/05 13:14:29;;;;;;;4.43;0.88;;;;;;;;;;5035654;28;20104;-75
2024/04/05 13:16:56;;;;;;;4.88;0.93;;;;;;;;;;5017949;28;20025;-73
2024/04/05 13:19:22;;;;;;;1.92;0.80;;;;;;;;;;5017588;28;20604;-73
2024/04/05 13:21:48;;;;;;;4.88;1.00;;;;;;;;;;5036143;28;20029;-73
2024/04/05 13:24:15;;;;;;;3.90;0.63;;;;;;;;;;5036606;28;20036;-75
2024/04/05 13:26:41;;;;;;;2.70;1.10;;;;;;;;;;5017582;28;20033;-74
2024/04/05 13:29:08;;;;;;;4.13;0.93;;;;;;;;;;5018006;28;20021;-75
2024/04/05 13:31:34;;;;;;;3.47;1.08;;;;;;;;;;5035215;28;20092;-75
2024/04/05 13:34:00;;;;;;;3.00;0.60;;;;;;;;;;5035633;28;20438;-74
2024/04/05 13:36:26;;;;;;;5.88;1.00;;;;;;;;;;5035448;28;20018;-74
2024/04/05 13:38:52;;;;;;;6.80;1.20;;;;;;;;;;5035421;28;20028;-73
2024/04/05 13:41:19;;;;;;;5.22;1.70;;;;;;;;;;5037091;28;20291;-76
2024/04/05 13:43:45;;;;;;;6.70;0.88;;;;;;;;;;5036859;28;20476;-75
2024/04/05 13:46:11;;;;;;;2.22;1.00;;;;;;;;;;5037605;28;20033;-76
2024/04/05 13:48:37;;;;;;;3.90;0.70;;;;;;;;;;5039270;28;20029;-75
2024/04/05 13:51:04;;;;;;;3.95;1.10;;;;;;;;;;5023047;28;20021;-75
2024/04/05 13:53:32;;;;;;;4.97;0.82;;;;;;;;;;5044241;28;20025;-75
2024/04/05 13:55:59;;;;;;;4.43;0.80;;;;;;;;;;5045988;28;20013;-76
2024/04/05 13:58:25;;;;;;;1.67;0.80;;;;;;;;;;5022173;28;20018;-75
2024/04/05 14:00:51;;;;;;;8.27;1.13;;;;;;;;;;5018542;28;20480;-75
2024/04/05 14:03:17;;;;;;;2.78;0.80;;;;;;;;;;5035483;28;20034;-76
2024/04/05 14:05:43;;;;;;;2.38;1.25;;;;;;;;;;5035013;28;20049;-75
2024/04/05 14:08:10;;;;;;;7.57;1.55;;;;;;;;;;5017875;28;20030;-73
2024/04/05 14:10:42;;;;;;;3.22;0.95;;;;;;;;;;5017419;28;20395;-77
2024/04/05 14:13:08;;;;;;;4.78;0.93;;;;;;;;;;5034376;28;20022;-75
2024/04/05 14:15:34;;;;;;;1.73;0.90;;;;;;;;;;5016334;28;20032;-73
2024/04/05 14:18:00;;;;;;;5.45;1.20;;;;;;;;;;5035602;28;20102;-75
2024/04/05 14:20:26;;;;;;;6.25;1.88;;;;;;;;;;5036535;28;20033;-73
2024/04/05 14:22:52;;;;;;;4.13;1.58;;;;;;;;;;5034794;28;20025;-73
2024/04/05 14:25:18;;;;;;;3.70;1.52;;;;;;;;;;5033753;28;20078;-73
2024/04/05 14:27:44;;;;;;;6.15;0.60;;;;;;;;;;5016953;28;20120;-74
2024/04/05 14:30:11;;;;;;;4.40;0.70;;;;;;;;;;5034661;28;20093;-72
2024/04/05 14:32:37;;;;;;;4.82;0.82;;;;;;;;;;5034507;28;20508;-75
2024/04/05 14:35:04;;;;;;;6.40;1.38;;;;;;;;;;5035065;28;20106;-76
2024/04/05 14:37:31;;;;;;;5.10;0.63;;;;;;;;;;5034916;28;20072;-75